KGVT

Majors Airport

Greenville, Texas, USA
METAR KGVT 230115Z AUTO 00000KT 10SM CLR 14/12 A3019 RMK AO2
Observed Flight Rules
Oct-23 @ 01:15 UTC (27 minutes ago) Visual Flight Rules
Visibility Clouds
10 miles
  • Clear skies
Temperatures Readings
Current 14°C / 57°F
Dewpoint 12°C / 54°F
Humidity 88%
Altimeter 30.19" Hg
Pressure 1022 hPa
Elevation 163
METAR KGVT 230115Z AUTO 00000KT 10SM CLR 14/12 A3019 RMK AO2
Observed Flight Rules
Oct-23 @ 01:15 UTC
(27 minutes ago)
VFR
Clouds
  • Clear skies
Temperature Dewpoint
14°C / 57°F 12°C / 54°F
Humidity Altimeter Pressure
88% 30.19" Hg 1022 hPa